Bhagwan Dryden — VHCO — position and weather

sailwx.info

Track history (hours):
 
Tides and Currents Weather Stations Pressure Air Temp Water Temp Dewpoint Dewpoint Depression Visibility Wind Speed Wind Dir Waves Ship Positions

Bhagwan Dryden

Last reported at 2018-Jun-12 10:33 UTC. Time now 2018-Jun-18 17:34 UTC.
Position S 38°06' E 148°55'.

Length 57 m; draft 3.2 m.

Type: Ship. MMSI: 503010110.

Date/timePositionNaut miles runAvg speedWind from/ knotsBaromVisibWave heightAir tempDewpointWater temp
2018-Jun-12 10:33S 38°06' E 148°55'4 7.8
2018-Jun-12 10:02S 38°08' E 148°50'0 8.0
2018-Jun-12 10:00S 38°08' E 148°50'4 7.5
2018-Jun-12 09:30S 38°10' E 148°46'4 7.2
2018-Jun-12 09:00S 38°13' E 148°42'4 7.3
2018-Jun-12 08:30S 38°15' E 148°39'4 7.2
2018-Jun-12 08:00S 38°16' E 148°35'4 7.1
2018-Jun-12 07:28S 38°19' E 148°31'3 7.3
2018-Jun-12 06:59S 38°20' E 148°27'4 7.2
2018-Jun-12 06:29S 38°22' E 148°23'3 6.8
2018-Jun-12 05:59S 38°24' E 148°20'0 0.6
2018-Jun-12 05:22S 38°24' E 148°19'0 0.0
2018-Jun-12 01:09S 38°24' E 148°19'0 0.3
2018-Jun-12 00:52S 38°24' E 148°19'0 0.0
2018-Jun-12 00:30S 38°24' E 148°19'0 0.1
2018-Jun-11 23:44S 38°24' E 148°19'0 0.1
2018-Jun-11 23:27S 38°24' E 148°19'0 0.1
2018-Jun-11 22:47S 38°24' E 148°19'0 0.0
2018-Jun-11 22:29S 38°24' E 148°19'0 0.2
2018-Jun-11 21:59S 38°24' E 148°19'0 0.0
2018-Jun-11 21:21S 38°24' E 148°19'0 0.1
2018-Jun-11 21:00S 38°24' E 148°19'0 0.2
2018-Jun-11 20:27S 38°24' E 148°19'0 0.4
2018-Jun-11 19:54S 38°24' E 148°19'0 0.0
2018-Jun-11 18:28S 38°24' E 148°19'0 0.0
2018-Jun-11 17:58S 38°24' E 148°19'0 0.0
2018-Jun-11 17:29S 38°24' E 148°19'0 0.0
2018-Jun-11 16:52S 38°24' E 148°19'0 0.0
2018-Jun-11 16:26S 38°24' E 148°19'0 0.0
2018-Jun-11 15:58S 38°24' E 148°19'0 0.0
2018-Jun-11 14:23S 38°24' E 148°19'0 0.0
2018-Jun-11 13:07S 38°24' E 148°19'0 0.0
2018-Jun-11 12:41S 38°24' E 148°19'0 0.2
2018-Jun-11 12:22S 38°24' E 148°19'0 0.0
2018-Jun-11 11:51S 38°24' E 148°19'0 0.0
2018-Jun-11 11:30S 38°24' E 148°19'0 0.1
2018-Jun-11 11:00S 38°24' E 148°19'0 0.0
2018-Jun-10 21:53S 38°25' E 148°19'0 0.1
2018-Jun-10 21:29S 38°25' E 148°19'0 0.1
2018-Jun-10 20:51S 38°25' E 148°19'0 0.0
2018-Jun-10 20:29S 38°25' E 148°19'0 0.1
2018-Jun-10 19:57S 38°25' E 148°19'0 0.0
2018-Jun-10 19:19S 38°25' E 148°19'0 0.0
2018-Jun-10 18:57S 38°25' E 148°19'0 0.0
2018-Jun-10 18:21S 38°25' E 148°19'0 0.0
2018-Jun-10 17:56S 38°25' E 148°19'0 0.0
2018-Jun-10 16:59S 38°25' E 148°19'0 0.0
2018-Jun-10 13:06S 38°25' E 148°19'  
2018-Jun-07 00:44S 38°12' E 147°59'2 7.7
2018-Jun-07 00:29S 38°12' E 148°01'0 0.8
2018-Jun-06 23:58S 38°12' E 148°02'0 0.0
2018-Jun-06 23:30S 38°12' E 148°02'0 0.0
2018-Jun-06 23:00S 38°12' E 148°02'0 0.0
2018-Jun-06 22:30S 38°12' E 148°02'0 0.0
2018-Jun-06 22:00S 38°12' E 148°02'0 0.5
2018-Jun-06 21:30S 38°12' E 148°01'0 0.2
2018-Jun-06 20:54S 38°12' E 148°01'0 0.0
2018-Jun-06 20:26S 38°12' E 148°01'0 0.0
2018-Jun-06 19:59S 38°12' E 148°01'0 0.0
2018-Jun-06 19:27S 38°12' E 148°01'0 0.0
2018-Jun-06 18:55S 38°12' E 148°01'0 0.0
2018-Jun-06 18:26S 38°12' E 148°01'0 0.0
2018-Jun-06 17:54S 38°12' E 148°01'0 0.0
2018-Jun-06 17:25S 38°12' E 148°01'0 0.0
2018-Jun-06 16:59S 38°12' E 148°01'0 0.0
2018-Jun-06 16:28S 38°12' E 148°01'0 0.0
2018-Jun-06 15:56S 38°12' E 148°01'0 0.0
2018-Jun-06 15:28S 38°12' E 148°01'0 0.0
2018-Jun-06 14:57S 38°12' E 148°01'0 0.0
2018-Jun-06 14:14S 38°12' E 148°01'0 0.0
2018-Jun-06 13:58S 38°12' E 148°01'0 0.0
2018-Jun-06 12:32S 38°12' E 148°01'0 0.0
2018-Jun-06 12:27S 38°12' E 148°01'0 0.1
2018-Jun-06 11:55S 38°12' E 148°02'0 0.0
2018-Jun-06 11:24S 38°12' E 148°02'0 0.0
2018-Jun-06 10:59S 38°12' E 148°02'0 0.0
2018-Jun-06 10:29S 38°12' E 148°02'0 0.0
2018-Jun-06 09:58S 38°12' E 148°02'0 0.0
2018-Jun-06 09:30S 38°12' E 148°02'0 0.2
2018-Jun-06 08:54S 38°12' E 148°02'0 0.0
2018-Jun-06 08:00S 38°12' E 148°02'0 0.0
2018-Jun-06 06:52S 38°12' E 148°02'0 0.0
2018-Jun-06 06:23S 38°12' E 148°02'0 0.0
2018-Jun-06 05:59S 38°12' E 148°02'0 0.5
2018-Jun-06 05:22S 38°12' E 148°01'0 0.1
2018-Jun-06 04:57S 38°12' E 148°01'0 0.0
2018-Jun-06 00:19S 38°12' E 148°02'0 0.0
2018-Jun-05 23:58S 38°12' E 148°02'0 0.0
2018-Jun-05 21:03S 38°12' E 148°01'0 0.1
2018-Jun-05 21:00S 38°12' E 148°01'0 0.5
2018-Jun-05 20:21S 38°12' E 148°02'0 0.2
2018-Jun-05 19:56S 38°12' E 148°02'0 0.0
2018-Jun-05 19:27S 38°12' E 148°02'0 0.0
2018-Jun-05 18:56S 38°12' E 148°02'0 0.0
2018-Jun-05 18:29S 38°12' E 148°02'0 0.0
2018-Jun-05 17:58S 38°12' E 148°02'0 0.0
2018-Jun-05 17:27S 38°12' E 148°02'0 0.1
2018-Jun-05 16:51S 38°12' E 148°02'0 0.1
2018-Jun-05 16:16S 38°12' E 148°02'0 0.0
2018-Jun-05 15:51S 38°12' E 148°02'0 0.0
2018-Jun-05 15:24S 38°12' E 148°02'0 0.0
2018-Jun-05 14:57S 38°12' E 148°02'0 0.0
2018-Jun-05 14:29S 38°12' E 148°02'0 0.0
2018-Jun-05 13:57S 38°12' E 148°02'0 0.0
2018-Jun-05 11:14S 38°12' E 148°02'0 0.0
2018-Jun-05 11:00S 38°12' E 148°02'0 0.0
2018-Jun-05 10:24S 38°12' E 148°02'0 0.0
2018-Jun-05 09:53S 38°12' E 148°02'0 0.0
2018-Jun-05 09:25S 38°12' E 148°02'0 0.0
2018-Jun-05 08:57S 38°12' E 148°02'0 0.0
2018-Jun-05 08:26S 38°12' E 148°02'0 0.0
2018-Jun-05 01:05S 38°12' E 148°01'0 0.0
2018-Jun-05 00:57S 38°12' E 148°01'0 0.0
2018-Jun-04 23:41S 38°12' E 148°01'0 0.0
2018-Jun-04 22:31S 38°12' E 148°01'0 0.0
2018-Jun-04 13:03S 38°12' E 148°02'0 0.0
2018-Jun-04 12:40S 38°12' E 148°02'0 0.0
2018-Jun-04 12:29S 38°12' E 148°02'0 0.0
2018-Jun-04 11:59S 38°12' E 148°02'8 0.7
2018-Jun-04 00:39S 38°04' E 148°00'2 7.6
2018-Jun-04 00:24S 38°02' E 148°00'3 7.7
2018-Jun-04 00:00S 37°59' E 147°60'3 6.5
2018-Jun-03 23:29S 37°55' E 147°59'0 0.0
2018-Jun-03 22:55S 37°55' E 147°59'0 0.0
2018-Jun-03 22:27S 37°55' E 147°59'1 2.1
2018-Jun-03 21:59S 37°56' E 147°59'4 8.3
2018-Jun-03 21:30S 38°00' E 147°60'4 8.3
2018-Jun-03 20:59S 38°04' E 148°00'4 8.3
2018-Jun-03 20:28S 38°09' E 148°01'2 0.2
2018-Jun-03 10:28S 38°11' E 148°01'2 3.6
2018-Jun-03 10:00S 38°12' E 147°59'4 7.5
2018-Jun-03 09:29S 38°13' E 147°55'15 1.5
2018-Jun-02 23:05S 38°14' E 148°14'0 0.6
2018-Jun-02 22:57S 38°14' E 148°14'0 0.0
2018-Jun-02 22:29S 38°14' E 148°14'0 0.0
2018-Jun-02 21:54S 38°14' E 148°14'0 0.2
2018-Jun-02 21:23S 38°14' E 148°14'0 0.1
2018-Jun-02 20:56S 38°14' E 148°14'0 0.0
2018-Jun-02 15:53S 38°14' E 148°14'0 0.0
2018-Jun-02 15:26S 38°14' E 148°14'0 0.0
2018-Jun-02 14:59S 38°14' E 148°14'0 0.0
2018-Jun-02 12:48S 38°14' E 148°14'  
Track history (hours):
 
Tides and Currents Weather Stations Pressure Air Temp Water Temp Dewpoint Dewpoint Depression Visibility Wind Speed Wind Dir Waves Ship Positions

Bhagwan Dryden

Last reported at 2018-Jun-12 10:33 UTC. Time now 2018-Jun-18 17:34 UTC.
Position S 38°06' E 148°55'.

Length 57 m; draft 3.2 m.

Type: Ship. MMSI: 503010110.

Date/timePositionNaut miles runAvg speedWind from/ knotsBaromVisibWave heightAir tempDewpointWater temp
2018-Jun-12 10:33S 38°06' E 148°55'4 7.8
2018-Jun-12 10:02S 38°08' E 148°50'0 8.0
2018-Jun-12 10:00S 38°08' E 148°50'4 7.5
2018-Jun-12 09:30S 38°10' E 148°46'4 7.2
2018-Jun-12 09:00S 38°13' E 148°42'4 7.3
2018-Jun-12 08:30S 38°15' E 148°39'4 7.2
2018-Jun-12 08:00S 38°16' E 148°35'4 7.1
2018-Jun-12 07:28S 38°19' E 148°31'3 7.3
2018-Jun-12 06:59S 38°20' E 148°27'4 7.2
2018-Jun-12 06:29S 38°22' E 148°23'3 6.8
2018-Jun-12 05:59S 38°24' E 148°20'0 0.6
2018-Jun-12 05:22S 38°24' E 148°19'0 0.0
2018-Jun-12 01:09S 38°24' E 148°19'0 0.3
2018-Jun-12 00:52S 38°24' E 148°19'0 0.0
2018-Jun-12 00:30S 38°24' E 148°19'0 0.1
2018-Jun-11 23:44S 38°24' E 148°19'0 0.1
2018-Jun-11 23:27S 38°24' E 148°19'0 0.1
2018-Jun-11 22:47S 38°24' E 148°19'0 0.0
2018-Jun-11 22:29S 38°24' E 148°19'0 0.2
2018-Jun-11 21:59S 38°24' E 148°19'0 0.0
2018-Jun-11 21:21S 38°24' E 148°19'0 0.1
2018-Jun-11 21:00S 38°24' E 148°19'0 0.2
2018-Jun-11 20:27S 38°24' E 148°19'0 0.4
2018-Jun-11 19:54S 38°24' E 148°19'0 0.0
2018-Jun-11 18:28S 38°24' E 148°19'0 0.0
2018-Jun-11 17:58S 38°24' E 148°19'0 0.0
2018-Jun-11 17:29S 38°24' E 148°19'0 0.0
2018-Jun-11 16:52S 38°24' E 148°19'0 0.0
2018-Jun-11 16:26S 38°24' E 148°19'0 0.0
2018-Jun-11 15:58S 38°24' E 148°19'0 0.0
2018-Jun-11 14:23S 38°24' E 148°19'0 0.0
2018-Jun-11 13:07S 38°24' E 148°19'0 0.0
2018-Jun-11 12:41S 38°24' E 148°19'0 0.2
2018-Jun-11 12:22S 38°24' E 148°19'0 0.0
2018-Jun-11 11:51S 38°24' E 148°19'0 0.0
2018-Jun-11 11:30S 38°24' E 148°19'0 0.1
2018-Jun-11 11:00S 38°24' E 148°19'0 0.0
2018-Jun-10 21:53S 38°25' E 148°19'0 0.1
2018-Jun-10 21:29S 38°25' E 148°19'0 0.1
2018-Jun-10 20:51S 38°25' E 148°19'0 0.0
2018-Jun-10 20:29S 38°25' E 148°19'0 0.1
2018-Jun-10 19:57S 38°25' E 148°19'0 0.0
2018-Jun-10 19:19S 38°25' E 148°19'0 0.0
2018-Jun-10 18:57S 38°25' E 148°19'0 0.0
2018-Jun-10 18:21S 38°25' E 148°19'0 0.0
2018-Jun-10 17:56S 38°25' E 148°19'0 0.0
2018-Jun-10 16:59S 38°25' E 148°19'0 0.0
2018-Jun-10 13:06S 38°25' E 148°19'  
2018-Jun-07 00:44S 38°12' E 147°59'2 7.7
2018-Jun-07 00:29S 38°12' E 148°01'0 0.8
2018-Jun-06 23:58S 38°12' E 148°02'0 0.0
2018-Jun-06 23:30S 38°12' E 148°02'0 0.0
2018-Jun-06 23:00S 38°12' E 148°02'0 0.0
2018-Jun-06 22:30S 38°12' E 148°02'0 0.0
2018-Jun-06 22:00S 38°12' E 148°02'0 0.5
2018-Jun-06 21:30S 38°12' E 148°01'0 0.2
2018-Jun-06 20:54S 38°12' E 148°01'0 0.0
2018-Jun-06 20:26S 38°12' E 148°01'0 0.0
2018-Jun-06 19:59S 38°12' E 148°01'0 0.0
2018-Jun-06 19:27S 38°12' E 148°01'0 0.0
2018-Jun-06 18:55S 38°12' E 148°01'0 0.0
2018-Jun-06 18:26S 38°12' E 148°01'0 0.0
2018-Jun-06 17:54S 38°12' E 148°01'0 0.0
2018-Jun-06 17:25S 38°12' E 148°01'0 0.0
2018-Jun-06 16:59S 38°12' E 148°01'0 0.0
2018-Jun-06 16:28S 38°12' E 148°01'0 0.0
2018-Jun-06 15:56S 38°12' E 148°01'0 0.0
2018-Jun-06 15:28S 38°12' E 148°01'0 0.0
2018-Jun-06 14:57S 38°12' E 148°01'0 0.0
2018-Jun-06 14:14S 38°12' E 148°01'0 0.0
2018-Jun-06 13:58S 38°12' E 148°01'0 0.0
2018-Jun-06 12:32S 38°12' E 148°01'0 0.0
2018-Jun-06 12:27S 38°12' E 148°01'0 0.1
2018-Jun-06 11:55S 38°12' E 148°02'0 0.0
2018-Jun-06 11:24S 38°12' E 148°02'0 0.0
2018-Jun-06 10:59S 38°12' E 148°02'0 0.0
2018-Jun-06 10:29S 38°12' E 148°02'0 0.0
2018-Jun-06 09:58S 38°12' E 148°02'0 0.0
2018-Jun-06 09:30S 38°12' E 148°02'0 0.2
2018-Jun-06 08:54S 38°12' E 148°02'0 0.0
2018-Jun-06 08:00S 38°12' E 148°02'0 0.0
2018-Jun-06 06:52S 38°12' E 148°02'0 0.0
2018-Jun-06 06:23S 38°12' E 148°02'0 0.0
2018-Jun-06 05:59S 38°12' E 148°02'0 0.5
2018-Jun-06 05:22S 38°12' E 148°01'0 0.1
2018-Jun-06 04:57S 38°12' E 148°01'0 0.0
2018-Jun-06 00:19S 38°12' E 148°02'0 0.0
2018-Jun-05 23:58S 38°12' E 148°02'0 0.0
2018-Jun-05 21:03S 38°12' E 148°01'0 0.1
2018-Jun-05 21:00S 38°12' E 148°01'0 0.5
2018-Jun-05 20:21S 38°12' E 148°02'0 0.2
2018-Jun-05 19:56S 38°12' E 148°02'0 0.0
2018-Jun-05 19:27S 38°12' E 148°02'0 0.0
2018-Jun-05 18:56S 38°12' E 148°02'0 0.0
2018-Jun-05 18:29S 38°12' E 148°02'0 0.0
2018-Jun-05 17:58S 38°12' E 148°02'0 0.0
2018-Jun-05 17:27S 38°12' E 148°02'0 0.1
2018-Jun-05 16:51S 38°12' E 148°02'0 0.1
2018-Jun-05 16:16S 38°12' E 148°02'0 0.0
2018-Jun-05 15:51S 38°12' E 148°02'0 0.0
2018-Jun-05 15:24S 38°12' E 148°02'0 0.0
2018-Jun-05 14:57S 38°12' E 148°02'0 0.0
2018-Jun-05 14:29S 38°12' E 148°02'0 0.0
2018-Jun-05 13:57S 38°12' E 148°02'0 0.0
2018-Jun-05 11:14S 38°12' E 148°02'0 0.0
2018-Jun-05 11:00S 38°12' E 148°02'0 0.0
2018-Jun-05 10:24S 38°12' E 148°02'0 0.0
2018-Jun-05 09:53S 38°12' E 148°02'0 0.0
2018-Jun-05 09:25S 38°12' E 148°02'0 0.0
2018-Jun-05 08:57S 38°12' E 148°02'0 0.0
2018-Jun-05 08:26S 38°12' E 148°02'0 0.0
2018-Jun-05 01:05S 38°12' E 148°01'0 0.0
2018-Jun-05 00:57S 38°12' E 148°01'0 0.0
2018-Jun-04 23:41S 38°12' E 148°01'0 0.0
2018-Jun-04 22:31S 38°12' E 148°01'0 0.0
2018-Jun-04 13:03S 38°12' E 148°02'0 0.0
2018-Jun-04 12:40S 38°12' E 148°02'0 0.0
2018-Jun-04 12:29S 38°12' E 148°02'0 0.0
2018-Jun-04 11:59S 38°12' E 148°02'8 0.7
2018-Jun-04 00:39S 38°04' E 148°00'2 7.6
2018-Jun-04 00:24S 38°02' E 148°00'3 7.7
2018-Jun-04 00:00S 37°59' E 147°60'3 6.5
2018-Jun-03 23:29S 37°55' E 147°59'0 0.0
2018-Jun-03 22:55S 37°55' E 147°59'0 0.0
2018-Jun-03 22:27S 37°55' E 147°59'1 2.1
2018-Jun-03 21:59S 37°56' E 147°59'4 8.3
2018-Jun-03 21:30S 38°00' E 147°60'4 8.3
2018-Jun-03 20:59S 38°04' E 148°00'4 8.3
2018-Jun-03 20:28S 38°09' E 148°01'2 0.2
2018-Jun-03 10:28S 38°11' E 148°01'2 3.6
2018-Jun-03 10:00S 38°12' E 147°59'4 7.5
2018-Jun-03 09:29S 38°13' E 147°55'15 1.5
2018-Jun-02 23:05S 38°14' E 148°14'0 0.6
2018-Jun-02 22:57S 38°14' E 148°14'0 0.0
2018-Jun-02 22:29S 38°14' E 148°14'0 0.0
2018-Jun-02 21:54S 38°14' E 148°14'0 0.2
2018-Jun-02 21:23S 38°14' E 148°14'0 0.1
2018-Jun-02 20:56S 38°14' E 148°14'0 0.0
2018-Jun-02 15:53S 38°14' E 148°14'0 0.0
2018-Jun-02 15:26S 38°14' E 148°14'0 0.0
2018-Jun-02 14:59S 38°14' E 148°14'0 0.0
2018-Jun-02 12:48S 38°14' E 148°14'  

Dump ship's entire track history